Time;durP1;ratioP1;P1;durP2;ratioP2;P2;SDS_P1;SDS_P2;PMS_P1;PMS_P2;Temp;Humidity;BMP_temperature;BMP_pressure;BME280_temperature;BME280_humidity;BME280_pressure;Samples;Min_cycle;Max_cycle;Signal;HPM_P1;HPM_P2
2022/03/08 00:01:35;;;;;;;3.47;1.30;;;2.80;99.90;2.10;102115.00;;;;5115268;28;20176;-69
2022/03/08 00:04:04;;;;;;;1.70;0.57;;;2.70;99.90;2.00;102148.00;;;;5114952;28;20639;-69
2022/03/08 00:06:32;;;;;;;3.80;1.83;;;2.60;99.90;1.90;102152.00;;;;5098129;28;20180;-69
2022/03/08 00:09:05;;;;;;;0.73;0.70;;;2.50;99.90;1.80;102147.00;;;;5115070;28;20168;-69
2022/03/08 00:11:36;;;;;;;0.20;0.20;;;2.40;99.90;2.10;102147.00;;;;5114755;28;20583;-70
2022/03/08 00:14:02;;;;;;;0.20;0.20;;;2.40;99.90;2.70;102148.00;;;;5115241;28;20180;-69
2022/03/08 00:16:33;;;;;;;0.40;0.40;;;2.60;99.90;2.40;102145.00;;;;5097854;28;20184;-69
2022/03/08 00:18:59;;;;;;;0.87;0.87;;;2.60;99.90;2.40;102151.00;;;;5097605;28;20184;-72
2022/03/08 00:21:25;;;;;;;0.10;0.10;;;2.60;99.90;2.00;102146.00;;;;5097604;28;20203;-69
2022/03/08 00:23:55;;;;;;;0.70;0.70;;;2.50;99.90;2.40;102096.00;;;;5097722;28;20188;-71
2022/03/08 00:26:22;;;;;;;3.13;0.97;;;2.60;99.90;2.10;102150.00;;;;5114913;28;20161;-70
2022/03/08 00:28:56;;;;;;;0.47;0.47;;;2.50;99.90;2.10;102152.00;;;;5114829;28;20259;-70
2022/03/08 00:31:25;;;;;;;0.37;0.37;;;2.50;99.90;2.10;102149.00;;;;5097672;28;20674;-70
2022/03/08 00:33:56;;;;;;;1.17;1.07;;;2.50;99.90;2.00;102131.00;;;;5097229;28;20235;-70
2022/03/08 00:36:25;;;;;;;4.90;2.47;;;2.50;99.90;1.50;102075.00;;;;5114254;28;20266;-70
2022/03/08 00:38:53;;;;;;;2.13;2.00;;;2.30;99.90;1.60;102095.00;;;;5097589;28;20180;-70
2022/03/08 00:41:22;;;;;;;0.53;0.53;;;2.30;99.90;1.70;102081.00;;;;5114410;28;20172;-70
2022/03/08 00:43:53;;;;;;;1.50;1.20;;;2.30;99.90;2.00;102125.00;;;;5097422;28;20204;-70
2022/03/08 00:46:24;;;;;;;0.20;0.20;;;2.40;99.90;2.50;102132.00;;;;5115180;28;20662;-71
2022/03/08 00:48:55;;;;;;;1.60;1.50;;;2.60;99.90;2.30;102129.00;;;;5114461;28;20179;-70
2022/03/08 00:51:24;;;;;;;0.73;0.73;;;2.50;99.90;2.60;102126.00;;;;5115499;28;20196;-70
2022/03/08 00:53:54;;;;;;;0.47;0.47;;;2.70;99.90;2.40;102116.00;;;;5114204;28;20184;-70
2022/03/08 00:56:26;;;;;;;1.37;1.37;;;2.70;99.90;2.50;102065.00;;;;5096297;28;20180;-70
2022/03/08 00:58:57;;;;;;;0.77;0.77;;;2.70;99.90;2.20;102067.00;;;;5097714;28;20287;-70
2022/03/08 01:01:25;;;;;;;1.50;1.33;;;2.50;99.90;2.30;102112.00;;;;5113541;28;20210;-69
2022/03/08 01:03:56;;;;;;;1.00;1.00;;;2.60;99.90;2.40;102111.00;;;;5114273;28;20266;-70
2022/03/08 01:06:30;;;;;;;1.30;1.30;;;2.60;99.90;2.30;102133.00;;;;5114007;28;20175;-70
2022/03/08 01:08:56;;;;;;;1.47;1.20;;;2.60;99.90;2.60;102117.00;;;;5113911;28;20611;-70
2022/03/08 01:11:27;;;;;;;1.13;0.90;;;2.70;99.90;2.50;102128.00;;;;5096830;28;20206;-70
2022/03/08 01:13:58;;;;;;;1.47;1.37;;;2.60;99.90;2.70;102116.00;;;;5114010;28;20180;-70
2022/03/08 01:16:30;;;;;;;1.30;1.23;;;2.60;99.90;2.40;102129.00;;;;5113609;28;20180;-70
2022/03/08 01:19:01;;;;;;;1.43;1.33;;;2.70;99.90;2.30;102110.00;;;;5096117;28;20241;-70
2022/03/08 01:21:31;;;;;;;0.57;0.57;;;2.50;99.90;2.30;102097.00;;;;5113765;28;20172;-70
2022/03/08 01:24:03;;;;;;;1.93;1.53;;;2.50;99.90;2.30;102111.00;;;;5113567;28;20643;-70
2022/03/08 01:26:31;;;;;;;2.60;1.17;;;2.50;99.90;1.70;102108.00;;;;5113375;28;20180;-70
2022/03/08 01:29:03;;;;;;;0.63;0.63;;;2.50;99.90;2.30;102108.00;;;;5113500;28;20176;-70
2022/03/08 01:31:34;;;;;;;1.47;1.30;;;2.50;99.90;2.30;102097.00;;;;5113169;28;20192;-70
2022/03/08 01:34:03;;;;;;;0.97;0.83;;;2.50;99.90;2.40;102113.00;;;;5096969;28;20547;-70
2022/03/08 01:36:32;;;;;;;1.33;1.23;;;2.50;99.90;2.20;102091.00;;;;5096140;28;20183;-69
2022/03/08 01:39:01;;;;;;;3.37;1.77;;;2.50;99.90;2.50;102097.00;;;;5113587;28;20255;-70
2022/03/08 01:41:32;;;;;;;0.97;0.97;;;2.60;99.90;2.10;102099.00;;;;5113364;28;20180;-69
2022/03/08 01:44:03;;;;;;;0.53;0.53;;;2.50;99.90;2.10;102027.00;;;;5113315;28;20259;-70
2022/03/08 01:46:36;;;;;;;3.30;1.67;;;2.40;99.90;2.10;102082.00;;;;5112822;28;20176;-70
2022/03/08 01:49:09;;;;;;;0.90;0.87;;;2.40;99.90;2.30;102110.00;;;;5113230;28;20661;-70
2022/03/08 01:51:43;;;;;;;1.30;1.30;;;2.60;99.90;2.10;102092.00;;;;5112925;28;20199;-69
2022/03/08 01:54:14;;;;;;;2.70;2.50;;;2.40;99.90;1.80;102092.00;;;;5096043;28;20175;-70
2022/03/08 01:56:48;;;;;;;1.33;1.23;;;2.40;99.90;1.80;102085.00;;;;5113127;28;20180;-70
2022/03/08 01:59:19;;;;;;;1.07;1.00;;;2.30;99.90;1.80;102064.00;;;;5096261;28;20184;-70
2022/03/08 02:01:48;;;;;;;1.37;1.33;;;2.30;99.90;1.40;102080.00;;;;5112651;28;20184;-70
2022/03/08 02:04:19;;;;;;;1.73;1.63;;;2.10;99.90;1.70;102067.00;;;;5114125;28;20168;-70
2022/03/08 02:06:50;;;;;;;0.87;0.87;;;2.00;99.90;1.70;102075.00;;;;5112560;28;20188;-70
2022/03/08 02:09:18;;;;;;;2.53;1.33;;;2.00;99.90;1.20;102067.00;;;;5095915;28;20525;-69
2022/03/08 02:11:54;;;;;;;0.93;0.93;;;1.90;99.90;1.40;101998.00;;;;5113788;28;20207;-69
2022/03/08 02:14:26;;;;;;;4.43;2.33;;;1.80;99.90;1.50;102061.00;;;;5113657;28;20184;-69
2022/03/08 02:16:52;;;;;;;0.40;0.40;;;1.90;99.90;1.80;101997.00;;;;5095856;28;20210;-69
2022/03/08 02:19:24;;;;;;;2.27;2.07;;;2.00;99.90;1.70;102003.00;;;;5112594;28;20180;-69
2022/03/08 02:21:56;;;;;;;1.17;1.17;;;2.10;99.90;1.40;102049.00;;;;5096370;28;20642;-70
2022/03/08 02:24:27;;;;;;;0.40;0.40;;;1.90;99.90;1.70;102046.00;;;;5112564;28;20183;-68
2022/03/08 02:26:58;;;;;;;0.83;0.50;;;1.90;99.90;1.60;102038.00;;;;5112751;28;20271;-69
2022/03/08 02:29:29;;;;;;;2.73;1.23;;;1.80;99.90;1.50;102036.00;;;;5112190;28;20180;-69
2022/03/08 02:32:03;;;;;;;0.70;0.70;;;1.90;99.90;1.50;102042.00;;;;5112377;28;20204;-69
2022/03/08 02:34:32;;;;;;;1.17;1.17;;;1.70;99.90;1.00;102045.00;;;;5112438;28;20187;-68
2022/03/08 02:37:11;;;;;;;0.30;0.30;;;1.70;99.90;1.20;102048.00;;;;5095966;28;20203;-69
2022/03/08 02:39:44;;;;;;;0.90;0.67;;;1.60;99.90;1.40;102011.00;;;;5096050;28;20176;-70
2022/03/08 02:42:12;;;;;;;0.30;0.30;;;1.80;99.90;1.00;102043.00;;;;5096179;28;20210;-70
2022/03/08 02:44:44;;;;;;;0.87;0.87;;;1.60;99.90;1.00;102037.00;;;;5112168;28;20180;-69
2022/03/08 02:47:13;;;;;;;3.53;3.23;;;1.50;99.90;1.60;102044.00;;;;5095389;28;20245;-70
2022/03/08 02:49:46;;;;;;;0.97;0.80;;;1.70;99.90;1.80;102034.00;;;;5112467;28;20156;-71
2022/03/08 02:52:12;;;;;;;0.93;0.87;;;1.80;99.90;1.40;102027.00;;;;5112422;28;20207;-70
2022/03/08 02:54:43;;;;;;;0.80;0.80;;;1.80;99.90;1.10;101988.00;;;;5095244;28;20226;-70
2022/03/08 02:57:11;;;;;;;1.00;1.00;;;1.70;99.90;0.80;102031.00;;;;5113197;28;20168;-69
2022/03/08 02:59:39;;;;;;;5.23;4.73;;;1.50;99.90;1.20;102028.00;;;;5112219;28;20184;-70
2022/03/08 03:02:11;;;;;;;2.10;1.87;;;1.50;99.90;1.10;102024.00;;;;5095367;28;20655;-69
2022/03/08 03:04:53;;;;;;;1.80;1.70;;;1.50;99.90;1.40;101986.00;;;;5112330;28;20631;-69
2022/03/08 03:07:27;;;;;;;4.07;1.47;;;1.60;99.90;1.10;102025.00;;;;5112220;28;20198;-69
2022/03/08 03:09:58;;;;;;;1.53;1.50;;;1.60;99.90;0.60;102006.00;;;;5112296;28;20160;-69
2022/03/08 03:12:29;;;;;;;1.87;1.13;;;1.40;99.90;0.50;102008.00;;;;5111973;28;20191;-69
2022/03/08 03:14:58;;;;;;;1.53;1.40;;;1.30;99.90;0.70;102008.00;;;;5112229;28;20631;-69
2022/03/08 03:17:27;;;;;;;3.90;3.60;;;1.20;99.90;0.70;102007.00;;;;5112365;28;20183;-69
2022/03/08 03:19:58;;;;;;;0.67;0.67;;;1.20;99.90;0.80;102009.00;;;;5115503;28;20176;-69
2022/03/08 03:22:27;;;;;;;1.63;1.53;;;1.20;99.90;0.60;101991.00;;;;5099089;28;20616;-69
2022/03/08 03:24:55;;;;;;;0.77;0.77;;;1.20;99.90;1.00;101989.00;;;;5098697;28;20278;-69
2022/03/08 03:27:21;;;;;;;0.60;0.60;;;1.30;99.90;1.10;101986.00;;;;5115576;28;20179;-70
2022/03/08 03:29:47;;;;;;;2.53;1.40;;;1.30;99.90;1.30;102004.00;;;;5098803;28;20184;-70
2022/03/08 03:32:19;;;;;;;6.53;5.90;;;1.40;99.90;1.20;101992.00;;;;5115632;28;20208;-69
2022/03/08 03:34:46;;;;;;;0.20;0.20;;;1.40;99.90;1.20;101975.00;;;;5115566;28;20263;-69
2022/03/08 03:37:12;;;;;;;2.13;2.00;;;1.50;99.90;1.20;101997.00;;;;5117051;28;20512;-69
2022/03/08 03:39:38;;;;;;;0.70;0.70;;;1.30;99.90;0.70;101980.00;;;;5115470;28;20624;-70
2022/03/08 03:42:07;;;;;;;1.90;1.23;;;1.30;99.90;0.50;101925.00;;;;5115910;28;20255;-70
2022/03/08 03:44:34;;;;;;;1.30;1.20;;;1.10;99.90;0.60;101920.00;;;;5115281;28;20196;-69
2022/03/08 03:46:59;;;;;;;0.53;0.53;;;1.10;99.90;0.70;101989.00;;;;5098611;28;20711;-69
2022/03/08 03:49:30;;;;;;;0.37;0.37;;;1.00;99.90;0.70;101974.00;;;;5098396;28;20184;-69
2022/03/08 03:51:59;;;;;;;0.50;0.50;;;1.10;99.90;1.00;101963.00;;;;5115365;28;20208;-69
2022/03/08 03:54:30;;;;;;;0.40;0.40;;;1.20;99.90;0.90;101982.00;;;;5098248;28;20271;-69
2022/03/08 03:56:59;;;;;;;0.50;0.50;;;1.20;99.90;1.30;101981.00;;;;5098192;28;20655;-69
2022/03/08 03:59:27;;;;;;;0.20;0.20;;;1.30;99.90;1.20;101972.00;;;;5116512;28;20176;-70
2022/03/08 04:01:53;;;;;;;1.90;1.80;;;1.30;99.90;0.60;101969.00;;;;5115272;28;20592;-69
2022/03/08 04:04:24;;;;;;;0.60;0.60;;;1.10;99.90;1.00;101963.00;;;;5098275;28;20214;-69
2022/03/08 04:06:53;;;;;;;0.80;0.80;;;1.10;99.90;1.30;101923.00;;;;5116360;27;20286;-69
2022/03/08 04:09:28;;;;;;;2.20;1.53;;;1.30;99.90;0.80;101963.00;;;;5114720;28;20172;-69
2022/03/08 04:11:56;;;;;;;0.60;0.60;;;1.30;99.90;1.00;101962.00;;;;5098786;28;20195;-69
2022/03/08 04:14:25;;;;;;;1.80;1.70;;;1.30;99.90;0.40;101958.00;;;;5098366;28;20179;-69
2022/03/08 04:16:54;;;;;;;0.90;0.90;;;1.00;99.90;0.30;101960.00;;;;5115339;28;20197;-69
2022/03/08 04:19:22;;;;;;;0.77;0.77;;;0.90;99.90;0.60;101956.00;;;;5114788;28;20271;-69
2022/03/08 04:21:49;;;;;;;1.10;1.10;;;0.90;99.90;0.90;101951.00;;;;5114924;28;20176;-69
2022/03/08 04:24:20;;;;;;;0.80;0.80;;;1.10;99.90;0.90;101958.00;;;;5097715;28;20631;-69
2022/03/08 04:26:55;;;;;;;0.57;0.57;;;1.10;99.90;1.00;101942.00;;;;5097650;28;20187;-69
2022/03/08 04:29:23;;;;;;;1.73;1.63;;;1.20;99.90;0.80;101954.00;;;;5098875;28;20183;-70
2022/03/08 04:31:52;;;;;;;0.30;0.30;;;1.10;99.90;0.90;101945.00;;;;5114208;28;20220;-69
2022/03/08 04:34:25;;;;;;;1.57;1.47;;;1.00;99.90;0.50;101948.00;;;;5097892;28;20175;-70
2022/03/08 04:36:58;;;;;;;1.13;1.13;;;0.90;99.90;0.80;101933.00;;;;5114597;28;20646;-69
2022/03/08 04:39:32;;;;;;;0.40;0.40;;;0.90;99.90;0.70;101937.00;;;;5114505;28;20531;-69
2022/03/08 04:42:03;;;;;;;2.67;1.23;;;1.00;99.90;0.40;101937.00;;;;5114321;28;20520;-69
2022/03/08 04:44:32;;;;;;;1.60;0.67;;;0.80;99.90;0.20;101931.00;;;;5114577;28;20180;-70
2022/03/08 04:46:58;;;;;;;1.07;1.07;;;0.70;99.90;0.40;101919.00;;;;5114488;28;20627;-69
2022/03/08 04:49:26;;;;;;;2.43;1.53;;;0.70;99.90;1.00;101936.00;;;;5097130;28;20186;-69
2022/03/08 04:51:57;;;;;;;0.60;0.50;;;1.00;99.90;0.80;101941.00;;;;5113408;28;20215;-70
2022/03/08 04:54:26;;;;;;;1.50;0.70;;;1.00;99.90;0.80;101941.00;;;;5114041;28;20208;-69
2022/03/08 04:56:56;;;;;;;0.40;0.40;;;1.00;99.90;0.50;101930.00;;;;5097217;28;20266;-70
2022/03/08 04:59:25;;;;;;;3.63;2.63;;;0.80;99.90;0.40;101926.00;;;;5115707;28;20207;-69
2022/03/08 05:01:58;;;;;;;2.90;1.73;;;0.80;99.90;0.40;101918.00;;;;5096795;28;20176;-69
2022/03/08 05:04:27;;;;;;;0.53;0.53;;;0.80;99.90;-0.40;101900.00;;;;5114139;28;20274;-69
2022/03/08 05:06:56;;;;;;;2.63;2.07;;;0.50;99.90;0.00;101836.00;;;;5096994;28;20186;-69
2022/03/08 05:09:45;;;;;;;1.63;1.53;;;0.50;99.90;0.20;101910.00;;;;5115015;28;20179;-70
2022/03/08 05:12:19;;;;;;;0.73;0.73;;;0.50;99.90;-0.10;101910.00;;;;5096688;28;20261;-70
2022/03/08 05:14:47;;;;;;;2.93;1.50;;;0.50;99.90;0.50;101902.00;;;;5097331;28;20228;-70
2022/03/08 05:17:15;;;;;;;1.27;0.73;;;0.80;99.90;0.00;101897.00;;;;5113609;28;20255;-70
2022/03/08 05:19:41;;;;;;;3.00;2.13;;;0.60;99.90;0.10;101897.00;;;;5096902;28;20187;-70
2022/03/08 05:22:07;;;;;;;0.77;0.77;;;0.60;99.90;-0.10;101882.00;;;;5096296;28;20188;-70
2022/03/08 05:24:41;;;;;;;1.73;1.63;;;0.60;99.90;0.00;101897.00;;;;5113705;28;20187;-69
2022/03/08 05:27:10;;;;;;;0.40;0.40;;;0.60;99.90;0.00;101882.00;;;;5113557;28;20179;-69
2022/03/08 05:29:41;;;;;;;2.17;1.97;;;0.60;99.90;0.20;101885.00;;;;5113021;28;20196;-69
2022/03/08 05:32:15;;;;;;;0.90;0.90;;;0.60;99.90;-0.10;101881.00;;;;5114180;28;20587;-69
2022/03/08 05:34:47;;;;;;;1.73;1.63;;;0.70;99.90;0.20;101898.00;;;;5114579;28;20173;-70
2022/03/08 05:37:15;;;;;;;1.17;0.83;;;0.70;99.90;0.20;101900.00;;;;5096520;28;20547;-69
2022/03/08 05:39:46;;;;;;;0.80;0.80;;;0.80;99.90;0.50;101901.00;;;;5096537;28;20217;-70
2022/03/08 05:42:20;;;;;;;1.57;1.47;;;0.80;99.90;0.10;101849.00;;;;5095924;28;20240;-69
2022/03/08 05:44:50;;;;;;;1.00;1.00;;;0.70;99.90;0.40;101874.00;;;;5096185;28;20188;-69
2022/03/08 05:47:21;;;;;;;4.20;2.07;;;0.70;99.90;0.40;101892.00;;;;5114610;28;20191;-69
2022/03/08 05:49:50;;;;;;;0.90;0.90;;;0.70;99.90;0.30;101877.00;;;;5096351;28;20188;-70
2022/03/08 05:52:20;;;;;;;2.40;2.20;;;0.70;99.90;0.30;101886.00;;;;5096141;28;20207;-69
2022/03/08 05:54:49;;;;;;;1.43;1.33;;;0.70;99.90;-0.30;101878.00;;;;5113030;28;20184;-69
2022/03/08 05:57:17;;;;;;;0.93;0.93;;;0.50;99.90;0.00;101822.00;;;;5112881;28;20214;-70
2022/03/08 05:59:47;;;;;;;1.03;1.00;;;0.60;99.90;0.00;101850.00;;;;5114246;28;20166;-69
2022/03/08 06:02:18;;;;;;;1.60;1.50;;;0.60;99.90;0.50;101882.00;;;;5112768;28;20218;-70
2022/03/08 06:04:52;;;;;;;2.83;2.10;;;0.70;99.90;0.30;101880.00;;;;5112827;28;20237;-70
2022/03/08 06:07:26;;;;;;;3.07;2.13;;;0.70;99.90;0.60;101890.00;;;;5114011;28;20176;-70
2022/03/08 06:09:57;;;;;;;1.60;1.50;;;0.80;99.90;0.50;101894.00;;;;5096117;28;20249;-70
2022/03/08 06:12:28;;;;;;;1.73;1.63;;;0.80;99.90;0.70;101896.00;;;;5112746;28;20204;-70
2022/03/08 06:14:59;;;;;;;2.13;1.40;;;0.90;99.90;0.70;101860.00;;;;5095889;28;20191;-70
2022/03/08 06:17:30;;;;;;;0.70;0.70;;;1.00;99.90;0.30;101896.00;;;;5112833;28;20179;-70
2022/03/08 06:19:58;;;;;;;5.27;4.87;;;0.90;99.90;0.40;101892.00;;;;5095360;28;20738;-70
2022/03/08 06:22:38;;;;;;;2.00;1.80;;;0.80;99.90;0.00;101906.00;;;;5112742;28;20919;-70
2022/03/08 06:25:05;;;;;;;4.70;3.13;;;0.80;99.90;0.50;101909.00;;;;5112835;28;20255;-70
2022/03/08 06:27:33;;;;;;;3.10;2.37;;;0.90;99.90;0.50;101914.00;;;;5112535;28;20245;-69
2022/03/08 06:30:04;;;;;;;2.80;2.60;;;1.00;99.90;0.70;101913.00;;;;5096204;28;20176;-70
2022/03/08 06:32:40;;;;;;;1.70;1.60;;;1.00;99.90;0.50;101909.00;;;;5112041;28;20211;-70
2022/03/08 06:35:30;;;;;;;0.60;0.60;;;1.00;99.90;0.70;101920.00;;;;5095912;28;20180;-69
2022/03/08 06:38:13;;;;;;;0.90;0.90;;;1.00;99.90;0.90;101924.00;;;;5113542;28;20586;-70
2022/03/08 06:40:42;;;;;;;1.30;1.30;;;1.10;99.90;0.70;101912.00;;;;5096049;28;20183;-69
2022/03/08 06:43:07;;;;;;;2.10;1.77;;;1.00;99.90;0.80;101903.00;;;;5111897;28;20283;-70
2022/03/08 06:46:36;;;;;;;1.00;0.90;;;1.10;99.90;0.80;101848.00;;;;5112518;28;20254;-70
2022/03/08 06:49:03;;;;;;;1.73;0.60;;;1.10;99.90;1.00;101917.00;;;;5094731;28;20280;-70
2022/03/08 06:51:31;;;;;;;2.87;1.73;;;1.30;99.90;1.00;101903.00;;;;5112347;28;20196;-70
2022/03/08 06:54:00;;;;;;;1.93;1.33;;;1.20;99.90;1.30;101900.00;;;;5113833;28;20275;-70
2022/03/08 06:56:29;;;;;;;0.97;0.73;;;1.40;99.90;0.90;101894.00;;;;5116745;28;20172;-70
2022/03/08 06:59:00;;;;;;;2.47;1.77;;;1.50;99.90;1.00;101900.00;;;;5099756;28;20184;-70
2022/03/08 07:01:30;;;;;;;1.37;1.37;;;1.50;99.90;1.30;101915.00;;;;5116397;28;20184;-70
2022/03/08 07:04:08;;;;;;;1.13;0.70;;;1.60;99.90;1.40;101905.00;;;;5115973;28;20221;-70
2022/03/08 07:06:39;;;;;;;0.57;0.57;;;1.60;99.90;1.50;101921.00;;;;5099881;28;20176;-70
2022/03/08 07:09:08;;;;;;;2.87;2.23;;;1.90;99.90;2.00;101863.00;;;;5116131;28;20264;-70
2022/03/08 07:11:39;;;;;;;0.30;0.30;;;2.10;99.90;2.10;101918.00;;;;5098911;28;20203;-69
2022/03/08 07:14:07;;;;;;;0.77;0.77;;;2.20;99.90;2.10;101864.00;;;;5116015;28;20176;-70
2022/03/08 07:16:41;;;;;;;5.40;3.90;;;2.50;99.90;2.10;101891.00;;;;5116076;28;20225;-70
2022/03/08 07:19:08;;;;;;;0.77;0.60;;;2.50;99.90;2.60;101932.00;;;;5115712;28;20180;-69
2022/03/08 07:21:40;;;;;;;1.47;1.37;;;2.80;99.90;2.80;101922.00;;;;5115973;28;20200;-70
2022/03/08 07:24:09;;;;;;;2.60;1.33;;;2.80;99.90;2.50;101933.00;;;;5117110;27;20319;-70
2022/03/08 07:26:39;;;;;;;1.30;1.10;;;2.90;99.90;2.10;101941.00;;;;5115982;28;20172;-70
2022/03/08 07:29:07;;;;;;;1.83;1.57;;;2.70;99.90;2.30;101934.00;;;;5115922;28;20176;-69
2022/03/08 07:31:35;;;;;;;1.40;1.30;;;2.70;99.90;2.50;101941.00;;;;5098571;28;20743;-70
2022/03/08 07:34:04;;;;;;;3.23;2.13;;;2.80;99.90;2.90;101936.00;;;;5115614;28;20188;-70
2022/03/08 07:36:35;;;;;;;1.07;1.07;;;3.00;99.90;2.70;101869.00;;;;5116025;28;20635;-69
2022/03/08 07:39:03;;;;;;;2.73;2.53;;;3.00;99.90;3.00;101931.00;;;;5116663;28;20663;-69
2022/03/08 07:41:38;;;;;;;2.13;1.97;;;3.20;99.90;2.90;101941.00;;;;5098783;28;20176;-69
2022/03/08 07:44:04;;;;;;;2.80;1.20;;;3.30;99.90;3.00;101927.00;;;;5099054;28;20222;-70
2022/03/08 07:46:32;;;;;;;2.83;2.03;;;3.30;99.90;3.80;101926.00;;;;5098850;28;20195;-70
2022/03/08 07:49:01;;;;;;;4.00;2.20;;;3.80;99.90;4.10;101932.00;;;;5115091;28;20203;-70
2022/03/08 07:51:32;;;;;;;9.60;3.00;;;4.30;99.90;4.40;101890.00;;;;5098242;28;20222;-70
2022/03/08 07:54:00;;;;;;;2.13;1.93;;;4.60;99.90;5.00;101903.00;;;;5098120;28;20239;-70
2022/03/08 07:56:31;;;;;;;4.60;4.20;;;4.90;99.90;4.90;101941.00;;;;5115312;28;20190;-70
2022/03/08 07:58:59;;;;;;;3.53;2.00;;;5.00;99.90;4.30;101947.00;;;;5115326;28;20190;-70
2022/03/08 08:01:27;;;;;;;4.57;4.03;;;4.90;99.90;4.70;101941.00;;;;5080279;28;20252;-69
2022/03/08 08:04:02;;;;;;;3.23;2.27;;;4.80;99.90;4.80;101950.00;;;;5114672;28;20230;-69
2022/03/08 08:06:30;;;;;;;2.70;2.03;;;5.00;99.90;4.50;101902.00;;;;5115345;28;20246;-70
2022/03/08 08:08:59;;;;;;;3.10;2.53;;;5.10;99.90;4.80;101924.00;;;;5115023;28;20197;-69
2022/03/08 08:11:25;;;;;;;1.87;1.00;;;5.20;99.90;4.80;101924.00;;;;5097742;28;20192;-69
2022/03/08 08:13:53;;;;;;;2.80;2.43;;;5.10;99.90;4.50;101936.00;;;;5098057;28;20192;-68
2022/03/08 08:16:19;;;;;;;1.90;1.50;;;5.00;99.90;5.00;101941.00;;;;5114724;28;20204;-69
2022/03/08 08:18:45;;;;;;;2.13;1.93;;;5.20;99.90;5.30;101930.00;;;;5098098;28;20551;-70
2022/03/08 08:21:11;;;;;;;0.93;0.93;;;5.50;99.90;5.90;101943.00;;;;5114829;28;20180;-69
2022/03/08 08:23:37;;;;;;;1.30;1.20;;;5.80;99.90;5.50;101939.00;;;;5115121;28;20630;-70
2022/03/08 08:26:03;;;;;;;3.43;2.47;;;5.90;99.90;5.70;101930.00;;;;5114938;28;20201;-70
2022/03/08 08:28:29;;;;;;;4.40;2.87;;;6.00;99.90;6.40;101934.00;;;;5097781;28;20747;-70
2022/03/08 08:30:58;;;;;;;3.13;2.83;;;6.30;99.90;6.00;101890.00;;;;5114557;28;20203;-71
2022/03/08 08:33:26;;;;;;;2.73;2.10;;;6.40;99.90;6.20;101925.00;;;;5114387;28;20208;-69
2022/03/08 08:35:52;;;;;;;1.53;1.43;;;6.40;99.90;6.00;101883.00;;;;5115006;28;20706;-70
2022/03/08 08:38:21;;;;;;;2.73;2.40;;;6.40;99.90;5.90;101917.00;;;;5114697;28;20273;-70
2022/03/08 08:40:51;;;;;;;1.50;1.27;;;6.30;99.90;6.30;101920.00;;;;5098021;28;20681;-69
2022/03/08 08:43:19;;;;;;;3.53;3.23;;;6.40;99.90;6.40;101903.00;;;;5097481;28;20663;-69
2022/03/08 08:45:52;;;;;;;3.93;1.50;;;6.60;99.90;6.10;101913.00;;;;5113965;28;20562;-70
2022/03/08 08:48:24;;;;;;;2.20;1.87;;;6.50;99.90;6.20;101908.00;;;;5114284;28;20176;-70
2022/03/08 08:50:50;;;;;;;4.13;3.73;;;6.50;99.90;5.90;101922.00;;;;5114322;28;20184;-70
2022/03/08 08:53:16;;;;;;;6.60;2.70;;;6.40;99.90;6.20;101917.00;;;;5114146;28;20386;-70
2022/03/08 08:55:49;;;;;;;2.47;2.13;;;6.40;99.90;6.30;101844.00;;;;5114170;28;20569;-70
2022/03/08 08:58:20;;;;;;;2.23;2.03;;;6.50;99.90;5.90;101898.00;;;;5114212;28;20701;-70
2022/03/08 09:00:45;;;;;;;3.63;3.10;;;6.50;99.90;6.20;101873.00;;;;5096481;28;20273;-70
2022/03/08 09:03:17;;;;;;;2.63;2.43;;;6.60;99.90;6.50;101872.00;;;;5113933;28;20262;-69
2022/03/08 09:05:49;;;;;;;2.57;2.03;;;6.70;99.90;6.50;101905.00;;;;5114166;28;20182;-70
2022/03/08 09:08:24;;;;;;;3.60;3.23;;;6.80;99.90;6.30;101904.00;;;;5114884;28;20223;-70
2022/03/08 09:10:59;;;;;;;1.73;1.60;;;6.70;99.90;6.80;101871.00;;;;5097288;28;20183;-70
2022/03/08 09:13:26;;;;;;;3.03;1.77;;;6.90;99.90;7.00;101896.00;;;;5097399;28;20325;-70
2022/03/08 09:15:54;;;;;;;2.27;2.07;;;7.20;99.90;7.40;101883.00;;;;5095730;28;20266;-70
2022/03/08 09:18:22;;;;;;;4.73;3.67;;;7.40;99.90;7.10;101879.00;;;;5114327;28;20182;-70
2022/03/08 09:20:50;;;;;;;3.63;2.97;;;7.50;99.90;7.30;101823.00;;;;5096803;28;20203;-70
2022/03/08 09:23:20;;;;;;;1.67;1.57;;;7.50;99.90;7.60;101880.00;;;;5113342;28;20653;-70
2022/03/08 09:25:51;;;;;;;3.37;1.53;;;7.60;99.90;7.20;101864.00;;;;5113603;28;20200;-70
2022/03/08 09:28:21;;;;;;;6.83;4.07;;;7.50;99.90;7.70;101854.00;;;;5113578;28;20187;-69
2022/03/08 09:30:48;;;;;;;1.10;1.03;;;7.80;99.90;7.70;101809.00;;;;5096889;28;20188;-68
2022/03/08 09:33:14;;;;;;;1.53;1.43;;;7.80;99.90;7.80;101851.00;;;;5113059;28;20207;-68
2022/03/08 09:35:39;;;;;;;3.10;2.80;;;7.90;99.90;7.40;101807.00;;;;5096286;28;20635;-68
2022/03/08 09:38:08;;;;;;;3.40;3.07;;;7.90;99.40;7.10;101802.00;;;;5096003;28;20236;-70
2022/03/08 09:40:41;;;;;;;2.70;1.60;;;7.70;99.50;7.60;101850.00;;;;5113547;28;20173;-69
2022/03/08 09:43:11;;;;;;;3.57;2.53;;;7.90;99.70;7.80;101827.00;;;;5113256;28;20184;-69
2022/03/08 09:45:42;;;;;;;10.20;2.53;;;8.00;98.80;7.70;101795.00;;;;5096508;28;20245;-68
2022/03/08 09:48:16;;;;;;;3.30;2.97;;;8.00;98.20;7.60;101844.00;;;;5112871;28;20176;-68
2022/03/08 09:50:45;;;;;;;5.50;3.70;;;7.90;97.60;7.80;101842.00;;;;5096528;28;20642;-68
2022/03/08 09:53:14;;;;;;;5.43;2.40;;;7.90;97.90;7.60;101814.00;;;;5095937;28;20214;-69
2022/03/08 09:55:42;;;;;;;2.73;2.53;;;7.90;97.90;7.40;101842.00;;;;5113304;28;20651;-68
2022/03/08 09:58:10;;;;;;;2.20;1.83;;;7.80;97.90;7.30;101852.00;;;;5112993;28;20176;-68
2022/03/08 10:00:41;;;;;;;3.50;2.40;;;7.70;98.00;7.80;101859.00;;;;5096384;28;20189;-68
2022/03/08 10:03:11;;;;;;;4.40;2.83;;;7.90;98.20;7.20;101861.00;;;;5112398;28;20578;-68
2022/03/08 10:05:40;;;;;;;4.37;3.13;;;7.80;97.90;7.70;101856.00;;;;5096317;28;20267;-68
2022/03/08 10:08:18;;;;;;;0.93;0.93;;;7.90;98.30;8.00;101856.00;;;;5096416;28;20180;-69
2022/03/08 10:11:00;;;;;;;1.63;1.53;;;8.10;98.30;8.40;101861.00;;;;5096503;28;20201;-69
2022/03/08 10:13:35;;;;;;;2.73;2.57;;;8.40;97.40;8.10;101860.00;;;;5095222;28;20208;-70
2022/03/08 10:16:26;;;;;;;2.00;1.80;;;8.40;97.50;8.20;101859.00;;;;5096172;28;20181;-68
2022/03/08 10:19:07;;;;;;;4.03;2.27;;;8.40;97.30;8.90;101838.00;;;;5113152;28;20231;-69
2022/03/08 10:33:21;;;;;;;2.63;2.43;;;8.80;95.60;8.70;101846.00;;;;5114472;27;1288098;-69
2022/03/08 10:35:54;;;;;;;3.97;3.20;;;9.00;96.00;8.70;101838.00;;;;5113745;28;20189;-69
2022/03/08 10:38:22;;;;;;;2.00;1.27;;;9.10;95.70;8.90;101823.00;;;;5113226;28;20272;-69
2022/03/08 10:40:53;;;;;;;5.73;3.03;;;9.10;95.30;9.00;101823.00;;;;5113156;28;20172;-69
2022/03/08 10:43:27;;;;;;;5.30;3.70;;;9.20;95.10;8.60;101832.00;;;;5113704;28;20301;-69
2022/03/08 10:45:58;;;;;;;3.77;2.43;;;9.10;94.90;8.20;101827.00;;;;5130445;28;20627;-70
2022/03/08 10:48:36;;;;;;;1.70;1.33;;;8.80;94.80;8.80;101834.00;;;;5130392;28;20188;-70
2022/03/08 10:54:51;;;;;;;3.53;1.53;;;9.50;95.30;9.50;101820.00;;;;5129971;27;20248;-71
2022/03/08 10:57:20;;;;;;;4.83;2.70;;;9.90;94.10;8.90;101809.00;;;;5112656;28;20179;-71
2022/03/08 10:59:58;;;;;;;2.37;1.87;;;9.40;94.00;9.70;101806.00;;;;5113377;28;20183;-71
2022/03/08 11:02:29;;;;;;;3.70;2.57;;;9.70;93.60;9.50;101811.00;;;;5130308;28;20194;-71
2022/03/08 11:05:12;;;;;;;2.33;2.20;;;9.70;93.50;9.50;101763.00;;;;5112603;28;20240;-71
2022/03/08 11:07:43;;;;;;;1.87;1.63;;;9.80;93.20;9.60;101750.00;;;;5129960;28;20181;-71
2022/03/08 11:10:16;;;;;;;3.63;2.90;;;9.90;92.90;9.90;101729.00;;;;5112818;28;20179;-70
2022/03/08 11:12:46;;;;;;;4.50;2.83;;;10.10;92.70;10.10;101795.00;;;;5131153;27;20199;-70
2022/03/08 11:15:20;;;;;;;2.07;1.93;;;10.20;92.20;10.10;101804.00;;;;5129691;28;20175;-70
2022/03/08 11:17:50;;;;;;;3.37;2.73;;;10.40;92.10;9.60;101811.00;;;;5113156;28;20618;-70
2022/03/08 11:20:18;;;;;;;1.37;1.30;;;10.00;91.80;9.50;101794.00;;;;5130583;27;20186;-70
2022/03/08 11:22:51;;;;;;;4.70;1.97;;;9.90;92.10;10.50;101807.00;;;;5129722;28;20175;-70
2022/03/08 11:25:18;;;;;;;3.03;2.53;;;10.30;92.20;10.00;101802.00;;;;5129214;28;20186;-69
2022/03/08 11:27:46;;;;;;;2.53;1.17;;;10.30;91.90;10.30;101794.00;;;;5112565;28;20190;-70
2022/03/08 11:30:24;;;;;;;1.50;1.17;;;10.40;92.30;9.90;101793.00;;;;5112429;28;20201;-69
2022/03/08 11:32:53;;;;;;;0.43;0.43;;;10.40;91.60;10.20;101797.00;;;;5129108;28;20211;-69